createdAt,value
2022-11-17T00:02:30.576Z,90.50
2022-11-17T00:10:38.790Z,90.50
2022-11-17T00:18:56.484Z,90.60
2022-11-17T00:27:26.062Z,90.80
2022-11-17T00:35:32.547Z,91.10
2022-11-17T00:43:43.303Z,90.90
2022-11-17T01:00:21.387Z,90.60
2022-11-17T01:08:34.993Z,90.30
2022-11-17T01:16:48.726Z,90.50
2022-11-17T01:24:54.045Z,90.30
2022-11-17T01:33:02.042Z,90.30
2022-11-17T01:41:10.423Z,90.40
2022-11-17T01:49:24.308Z,90.70
2022-11-17T01:57:34.112Z,90.90
2022-11-17T02:05:51.377Z,90.90
2022-11-17T02:13:58.771Z,91.10
2022-11-17T02:22:36.545Z,91.50
2022-11-17T02:30:52.160Z,91.90
2022-11-17T02:39:03.666Z,91.60
2022-11-17T02:47:18.595Z,91.80
2022-11-17T02:55:24.074Z,91.40
2022-11-17T03:03:47.782Z,91.40
2022-11-17T03:11:56.663Z,91.40
2022-11-17T03:20:11.766Z,91.20
2022-11-17T03:28:20.571Z,91.20
2022-11-17T03:36:33.982Z,91.00
2022-11-17T03:44:42.319Z,90.70
2022-11-17T03:52:51.774Z,90.70
2022-11-17T04:00:59.296Z,91.10
2022-11-17T04:09:07.395Z,91.10
2022-11-17T04:17:12.837Z,91.20
2022-11-17T04:25:40.848Z,91.10
2022-11-17T04:33:48.081Z,91.00
2022-11-17T04:42:03.447Z,91.10
2022-11-17T04:50:10.366Z,90.80
2022-11-17T04:58:18.345Z,90.70
2022-11-17T05:06:25.998Z,90.60
2022-11-17T05:14:34.402Z,90.70
2022-11-17T05:22:52.154Z,90.70
2022-11-17T05:31:00.191Z,90.90
2022-11-17T05:39:06.453Z,91.10
2022-11-17T05:47:14.604Z,91.00
2022-11-17T05:55:19.925Z,91.00
2022-11-17T06:03:32.249Z,91.30
2022-11-17T06:11:37.803Z,91.50
2022-11-17T06:19:49.409Z,91.40
2022-11-17T06:27:56.678Z,91.80
2022-11-17T06:36:07.299Z,92.60
2022-11-17T06:44:12.665Z,92.50
2022-11-17T06:52:20.646Z,93.20
2022-11-17T07:00:26.262Z,92.80
2022-11-17T07:08:35.202Z,92.70
2022-11-17T07:16:41.103Z,93.10
2022-11-17T07:24:49.626Z,92.60
2022-11-17T07:32:55.179Z,92.70
2022-11-17T07:41:03.970Z,92.50
2022-11-17T07:49:09.413Z,92.10
2022-11-17T07:57:17.750Z,92.10
2022-11-17T08:05:24.588Z,91.90
2022-11-17T08:13:32.569Z,91.90
2022-11-17T08:21:41.319Z,92.20
2022-11-17T08:29:49.404Z,92.20
2022-11-17T08:37:55.272Z,92.20
2022-11-17T08:46:03.463Z,91.70
2022-11-17T08:54:09.086Z,91.60
2022-11-17T09:02:18.205Z,91.80
2022-11-17T09:10:23.634Z,91.90
2022-11-17T09:18:31.689Z,91.80
2022-11-17T09:26:40.955Z,91.30
2022-11-17T09:34:49.162Z,90.90
2022-11-17T09:42:54.709Z,91.00
2022-11-17T09:51:05.348Z,90.40
2022-11-17T09:59:13.954Z,90.80
2022-11-17T10:07:22.393Z,90.50
2022-11-17T10:15:32.645Z,90.50
2022-11-17T10:23:47.416Z,89.40
2022-11-17T10:31:53.267Z,87.80
2022-11-17T10:40:24.792Z,87.10
2022-11-17T10:48:33.115Z,88.30
2022-11-17T10:56:44.794Z,88.90
2022-11-17T11:04:50.903Z,89.90
2022-11-17T11:13:07.318Z,89.60
2022-11-17T11:21:17.506Z,88.20
2022-11-17T11:29:35.747Z,86.00
2022-11-17T11:37:47.218Z,86.30
2022-11-17T11:46:05.764Z,85.90
2022-11-17T11:54:16.903Z,85.60
2022-11-17T12:02:32.117Z,86.50
2022-11-17T12:10:43.631Z,85.30
2022-11-17T12:18:51.654Z,84.60
2022-11-17T12:27:42.094Z,83.60
2022-11-17T12:36:10.189Z,84.00
2022-11-17T12:44:46.470Z,82.70
2022-11-17T12:53:08.234Z,80.80
2022-11-17T13:01:20.025Z,80.10
2022-11-17T13:09:30.714Z,81.40
2022-11-17T13:17:41.963Z,82.70
2022-11-17T13:25:50.232Z,82.90
2022-11-17T13:34:02.721Z,82.10
2022-11-17T13:42:11.069Z,82.10
2022-11-17T13:50:40.586Z,81.80
2022-11-17T13:58:52.007Z,81.60
2022-11-17T14:07:00.612Z,82.50
2022-11-17T14:15:17.050Z,83.40
2022-11-17T14:23:22.558Z,85.40
2022-11-17T14:31:30.604Z,85.10
2022-11-17T14:39:35.978Z,84.50
2022-11-17T14:47:44.230Z,84.20
2022-11-17T14:55:49.662Z,84.20
2022-11-17T15:03:58.734Z,84.60
2022-11-17T15:12:04.318Z,85.10
2022-11-17T15:20:13.779Z,84.80
2022-11-17T15:28:23.027Z,85.00
2022-11-17T15:36:32.033Z,84.70
2022-11-17T15:44:37.474Z,85.30
2022-11-17T16:01:16.034Z,85.00
2022-11-17T16:09:24.185Z,84.90
2022-11-17T16:17:29.634Z,85.30
2022-11-17T16:25:43.019Z,85.20
2022-11-17T16:33:52.533Z,85.40
2022-11-17T16:42:01.758Z,85.90
2022-11-17T16:50:08.168Z,85.70
2022-11-17T16:58:16.313Z,85.80
2022-11-17T17:06:21.763Z,85.30
2022-11-17T17:14:29.831Z,85.10
2022-11-17T17:22:35.331Z,85.90
2022-11-17T17:30:43.444Z,86.20
2022-11-17T17:38:55.041Z,85.10
2022-11-17T17:47:03.675Z,84.90
2022-11-17T17:55:10.771Z,84.70
2022-11-17T18:03:20.549Z,84.90
2022-11-17T18:11:26.746Z,84.90
2022-11-17T18:19:34.923Z,85.30
2022-11-17T18:27:40.279Z,85.00
2022-11-17T18:35:49.052Z,85.20
2022-11-17T18:43:55.273Z,85.40
2022-11-17T18:52:03.474Z,85.60
2022-11-17T19:00:10.784Z,85.60
2022-11-17T19:08:18.942Z,85.80
2022-11-17T19:16:26.097Z,85.70
2022-11-17T19:24:39.008Z,85.20
2022-11-17T19:32:45.558Z,85.30
2022-11-17T19:40:53.574Z,85.20
2022-11-17T19:48:59.753Z,85.40
2022-11-17T19:57:08.133Z,85.60
2022-11-17T20:05:13.577Z,85.40
2022-11-17T20:13:21.581Z,85.40
2022-11-17T20:21:27.625Z,85.00
2022-11-17T20:29:35.638Z,85.80
2022-11-17T20:37:41.926Z,86.40
2022-11-17T20:45:52.909Z,85.90
2022-11-17T20:53:58.425Z,85.80
2022-11-17T21:02:06.622Z,85.60
2022-11-17T21:10:12.666Z,85.40
2022-11-17T21:18:26.560Z,85.90
2022-11-17T21:26:32.116Z,85.50
2022-11-17T21:34:40.111Z,86.00
2022-11-17T21:42:45.447Z,86.10
2022-11-17T21:50:53.557Z,86.50
2022-11-17T21:58:59.053Z,86.80
2022-11-17T22:07:07.346Z,88.90
2022-11-17T22:15:13.116Z,90.00
2022-11-17T22:23:21.555Z,88.50
2022-11-17T22:31:27.351Z,87.00
2022-11-17T22:39:38.941Z,88.10
2022-11-17T22:47:44.428Z,88.30
2022-11-17T22:55:52.816Z,89.20
2022-11-17T23:03:58.321Z,89.20
2022-11-17T23:12:06.539Z,88.60
2022-11-17T23:20:13.879Z,88.40
2022-11-17T23:28:21.950Z,89.30
2022-11-17T23:36:27.784Z,88.30
2022-11-17T23:44:36.198Z,87.80
2022-11-17T23:52:41.569Z,88.20
